sensor_id;sensor_type;location;lat;lon;timestamp;P1;durP1;ratioP1;P2;durP2;ratioP2
9330;SDS011;4704;50.470;12.072;2024-02-26T00:01:22;0.90;;;0.88;;
9330;SDS011;4704;50.470;12.072;2024-02-26T00:03:50;0.93;;;0.93;;
9330;SDS011;4704;50.470;12.072;2024-02-26T00:06:17;0.90;;;0.90;;
9330;SDS011;4704;50.470;12.072;2024-02-26T00:08:46;1.10;;;1.00;;
9330;SDS011;4704;50.470;12.072;2024-02-26T00:11:14;0.80;;;0.80;;
9330;SDS011;4704;50.470;12.072;2024-02-26T00:13:42;1.08;;;1.05;;
9330;SDS011;4704;50.470;12.072;2024-02-26T00:16:09;0.85;;;0.85;;
9330;SDS011;4704;50.470;12.072;2024-02-26T00:18:37;0.80;;;0.80;;
9330;SDS011;4704;50.470;12.072;2024-02-26T00:21:04;1.00;;;0.90;;
9330;SDS011;4704;50.470;12.072;2024-02-26T00:23:32;1.05;;;0.95;;
9330;SDS011;4704;50.470;12.072;2024-02-26T00:26:01;0.88;;;0.88;;
9330;SDS011;4704;50.470;12.072;2024-02-26T00:28:29;1.10;;;1.00;;
9330;SDS011;4704;50.470;12.072;2024-02-26T00:30:56;0.90;;;0.90;;
9330;SDS011;4704;50.470;12.072;2024-02-26T00:33:24;1.17;;;1.08;;
9330;SDS011;4704;50.470;12.072;2024-02-26T00:35:51;1.13;;;1.02;;
9330;SDS011;4704;50.470;12.072;2024-02-26T00:38:19;1.33;;;1.23;;
9330;SDS011;4704;50.470;12.072;2024-02-26T00:40:47;1.10;;;1.00;;
9330;SDS011;4704;50.470;12.072;2024-02-26T00:43:16;0.80;;;0.80;;
9330;SDS011;4704;50.470;12.072;2024-02-26T00:45:43;0.85;;;0.85;;
9330;SDS011;4704;50.470;12.072;2024-02-26T00:48:12;1.20;;;1.10;;
9330;SDS011;4704;50.470;12.072;2024-02-26T00:50:39;1.10;;;1.00;;
9330;SDS011;4704;50.470;12.072;2024-02-26T00:53:07;1.08;;;1.05;;
9330;SDS011;4704;50.470;12.072;2024-02-26T00:55:35;1.10;;;1.00;;
9330;SDS011;4704;50.470;12.072;2024-02-26T00:58:02;0.93;;;0.93;;
9330;SDS011;4704;50.470;12.072;2024-02-26T01:00:31;1.33;;;1.23;;
9330;SDS011;4704;50.470;12.072;2024-02-26T01:02:59;1.20;;;1.10;;
9330;SDS011;4704;50.470;12.072;2024-02-26T01:05:26;1.25;;;1.15;;
9330;SDS011;4704;50.470;12.072;2024-02-26T01:07:54;1.20;;;1.10;;
9330;SDS011;4704;50.470;12.072;2024-02-26T01:10:22;1.30;;;1.20;;
9330;SDS011;4704;50.470;12.072;2024-02-26T01:12:49;1.20;;;1.10;;
9330;SDS011;4704;50.470;12.072;2024-02-26T01:15:17;1.20;;;1.10;;
9330;SDS011;4704;50.470;12.072;2024-02-26T01:17:50;1.27;;;1.17;;
9330;SDS011;4704;50.470;12.072;2024-02-26T01:20:17;1.55;;;1.45;;
9330;SDS011;4704;50.470;12.072;2024-02-26T01:22:45;1.25;;;1.15;;
9330;SDS011;4704;50.470;12.072;2024-02-26T01:25:13;1.35;;;1.25;;
9330;SDS011;4704;50.470;12.072;2024-02-26T01:27:41;1.40;;;1.30;;
9330;SDS011;4704;50.470;12.072;2024-02-26T01:30:09;1.35;;;1.25;;
9330;SDS011;4704;50.470;12.072;2024-02-26T01:32:37;1.33;;;1.20;;
9330;SDS011;4704;50.470;12.072;2024-02-26T01:35:06;1.40;;;1.30;;
9330;SDS011;4704;50.470;12.072;2024-02-26T01:37:36;1.60;;;1.50;;
9330;SDS011;4704;50.470;12.072;2024-02-26T01:40:04;1.40;;;1.30;;
9330;SDS011;4704;50.470;12.072;2024-02-26T01:42:32;1.50;;;1.40;;
9330;SDS011;4704;50.470;12.072;2024-02-26T01:45:00;1.23;;;1.13;;
9330;SDS011;4704;50.470;12.072;2024-02-26T01:47:28;1.50;;;1.40;;
9330;SDS011;4704;50.470;12.072;2024-02-26T01:49:57;1.50;;;1.40;;
9330;SDS011;4704;50.470;12.072;2024-02-26T01:52:26;1.40;;;1.30;;
9330;SDS011;4704;50.470;12.072;2024-02-26T01:54:53;1.40;;;1.30;;
9330;SDS011;4704;50.470;12.072;2024-02-26T01:57:21;1.30;;;1.20;;
9330;SDS011;4704;50.470;12.072;2024-02-26T01:59:48;1.48;;;1.38;;
9330;SDS011;4704;50.470;12.072;2024-02-26T02:02:16;1.40;;;1.30;;
9330;SDS011;4704;50.470;12.072;2024-02-26T02:04:44;1.25;;;1.15;;
9330;SDS011;4704;50.470;12.072;2024-02-26T02:07:11;1.60;;;1.50;;
9330;SDS011;4704;50.470;12.072;2024-02-26T02:09:41;1.88;;;1.77;;
9330;SDS011;4704;50.470;12.072;2024-02-26T02:12:09;1.50;;;1.40;;
9330;SDS011;4704;50.470;12.072;2024-02-26T02:14:36;1.33;;;1.23;;
9330;SDS011;4704;50.470;12.072;2024-02-26T02:17:04;1.40;;;1.30;;
9330;SDS011;4704;50.470;12.072;2024-02-26T02:19:32;1.83;;;1.73;;
9330;SDS011;4704;50.470;12.072;2024-02-26T02:22:01;1.60;;;1.50;;
9330;SDS011;4704;50.470;12.072;2024-02-26T02:24:28;1.63;;;1.52;;
9330;SDS011;4704;50.470;12.072;2024-02-26T02:26:56;1.60;;;1.50;;
9330;SDS011;4704;50.470;12.072;2024-02-26T02:29:24;1.77;;;1.67;;
9330;SDS011;4704;50.470;12.072;2024-02-26T02:31:52;1.65;;;1.55;;
9330;SDS011;4704;50.470;12.072;2024-02-26T02:34:21;1.75;;;1.65;;
9330;SDS011;4704;50.470;12.072;2024-02-26T02:36:49;1.98;;;1.45;;
9330;SDS011;4704;50.470;12.072;2024-02-26T02:39:18;1.60;;;1.50;;
9330;SDS011;4704;50.470;12.072;2024-02-26T02:41:45;1.70;;;1.60;;
9330;SDS011;4704;50.470;12.072;2024-02-26T02:44:13;1.77;;;1.67;;
9330;SDS011;4704;50.470;12.072;2024-02-26T02:46:41;1.67;;;1.58;;
9330;SDS011;4704;50.470;12.072;2024-02-26T02:49:09;1.65;;;1.55;;
9330;SDS011;4704;50.470;12.072;2024-02-26T02:51:36;1.70;;;1.60;;
9330;SDS011;4704;50.470;12.072;2024-02-26T02:54:04;1.92;;;1.80;;
9330;SDS011;4704;50.470;12.072;2024-02-26T02:56:33;1.90;;;1.80;;
9330;SDS011;4704;50.470;12.072;2024-02-26T02:59:00;1.65;;;1.55;;
9330;SDS011;4704;50.470;12.072;2024-02-26T03:01:28;1.75;;;1.65;;
9330;SDS011;4704;50.470;12.072;2024-02-26T03:03:56;2.13;;;1.92;;
9330;SDS011;4704;50.470;12.072;2024-02-26T03:06:23;1.65;;;1.55;;
9330;SDS011;4704;50.470;12.072;2024-02-26T03:08:52;1.70;;;1.60;;
9330;SDS011;4704;50.470;12.072;2024-02-26T03:11:20;1.90;;;1.80;;
9330;SDS011;4704;50.470;12.072;2024-02-26T03:13:49;2.13;;;1.92;;
9330;SDS011;4704;50.470;12.072;2024-02-26T03:16:17;2.35;;;1.85;;
9330;SDS011;4704;50.470;12.072;2024-02-26T03:18:44;2.00;;;1.90;;
9330;SDS011;4704;50.470;12.072;2024-02-26T03:21:12;2.05;;;1.88;;
9330;SDS011;4704;50.470;12.072;2024-02-26T03:23:39;2.17;;;1.85;;
9330;SDS011;4704;50.470;12.072;2024-02-26T03:26:07;1.92;;;1.83;;
9330;SDS011;4704;50.470;12.072;2024-02-26T03:28:38;1.80;;;1.70;;
9330;SDS011;4704;50.470;12.072;2024-02-26T03:31:07;1.90;;;1.75;;
9330;SDS011;4704;50.470;12.072;2024-02-26T03:33:35;2.30;;;2.10;;
9330;SDS011;4704;50.470;12.072;2024-02-26T03:36:03;1.70;;;1.60;;
9330;SDS011;4704;50.470;12.072;2024-02-26T03:38:33;1.70;;;1.60;;
9330;SDS011;4704;50.470;12.072;2024-02-26T03:41:00;1.90;;;1.80;;
9330;SDS011;4704;50.470;12.072;2024-02-26T03:43:28;1.77;;;1.67;;
9330;SDS011;4704;50.470;12.072;2024-02-26T03:45:55;2.13;;;2.00;;
9330;SDS011;4704;50.470;12.072;2024-02-26T03:48:24;2.13;;;1.95;;
9330;SDS011;4704;50.470;12.072;2024-02-26T03:50:52;2.00;;;1.80;;
9330;SDS011;4704;50.470;12.072;2024-02-26T03:53:20;2.08;;;1.90;;
9330;SDS011;4704;50.470;12.072;2024-02-26T03:55:47;1.80;;;1.70;;
9330;SDS011;4704;50.470;12.072;2024-02-26T03:58:17;2.00;;;1.90;;
9330;SDS011;4704;50.470;12.072;2024-02-26T04:00:44;1.77;;;1.67;;
9330;SDS011;4704;50.470;12.072;2024-02-26T04:03:13;2.33;;;2.13;;
9330;SDS011;4704;50.470;12.072;2024-02-26T04:05:42;2.00;;;1.83;;
9330;SDS011;4704;50.470;12.072;2024-02-26T04:08:10;2.00;;;1.90;;
9330;SDS011;4704;50.470;12.072;2024-02-26T04:10:37;2.03;;;1.90;;
9330;SDS011;4704;50.470;12.072;2024-02-26T04:13:05;1.80;;;1.70;;
9330;SDS011;4704;50.470;12.072;2024-02-26T04:15:32;1.90;;;1.80;;
9330;SDS011;4704;50.470;12.072;2024-02-26T04:18:00;2.35;;;2.15;;
9330;SDS011;4704;50.470;12.072;2024-02-26T04:20:29;2.38;;;2.17;;
9330;SDS011;4704;50.470;12.072;2024-02-26T04:22:58;2.10;;;1.90;;
9330;SDS011;4704;50.470;12.072;2024-02-26T04:25:25;2.47;;;2.28;;
9330;SDS011;4704;50.470;12.072;2024-02-26T04:27:53;2.30;;;2.10;;
9330;SDS011;4704;50.470;12.072;2024-02-26T04:30:21;2.30;;;2.10;;
9330;SDS011;4704;50.470;12.072;2024-02-26T04:32:49;2.30;;;2.10;;
9330;SDS011;4704;50.470;12.072;2024-02-26T04:35:17;2.38;;;2.17;;
9330;SDS011;4704;50.470;12.072;2024-02-26T04:37:45;2.38;;;1.98;;
9330;SDS011;4704;50.470;12.072;2024-02-26T04:40:14;2.00;;;1.90;;
9330;SDS011;4704;50.470;12.072;2024-02-26T04:42:42;2.53;;;2.33;;
9330;SDS011;4704;50.470;12.072;2024-02-26T04:45:09;2.40;;;2.20;;
9330;SDS011;4704;50.470;12.072;2024-02-26T04:47:37;2.30;;;2.10;;
9330;SDS011;4704;50.470;12.072;2024-02-26T04:50:05;2.30;;;2.10;;
9330;SDS011;4704;50.470;12.072;2024-02-26T04:52:33;2.22;;;2.03;;
9330;SDS011;4704;50.470;12.072;2024-02-26T04:55:01;2.25;;;2.05;;
9330;SDS011;4704;50.470;12.072;2024-02-26T04:57:30;2.47;;;2.28;;
9330;SDS011;4704;50.470;12.072;2024-02-26T04:59:58;2.33;;;2.13;;
9330;SDS011;4704;50.470;12.072;2024-02-26T05:02:26;2.10;;;1.90;;
9330;SDS011;4704;50.470;12.072;2024-02-26T05:04:55;2.17;;;1.98;;
9330;SDS011;4704;50.470;12.072;2024-02-26T05:07:22;2.42;;;2.17;;
9330;SDS011;4704;50.470;12.072;2024-02-26T05:09:50;2.40;;;2.20;;
9330;SDS011;4704;50.470;12.072;2024-02-26T05:12:17;2.20;;;2.00;;
9330;SDS011;4704;50.470;12.072;2024-02-26T05:14:46;2.28;;;2.08;;
9330;SDS011;4704;50.470;12.072;2024-02-26T05:17:13;2.45;;;2.25;;
9330;SDS011;4704;50.470;12.072;2024-02-26T05:19:41;2.40;;;2.20;;
9330;SDS011;4704;50.470;12.072;2024-02-26T05:22:08;2.20;;;2.00;;
9330;SDS011;4704;50.470;12.072;2024-02-26T05:24:37;2.40;;;2.20;;
9330;SDS011;4704;50.470;12.072;2024-02-26T05:27:05;2.30;;;2.10;;
9330;SDS011;4704;50.470;12.072;2024-02-26T05:29:32;2.33;;;2.13;;
9330;SDS011;4704;50.470;12.072;2024-02-26T05:32:01;2.28;;;2.08;;
9330;SDS011;4704;50.470;12.072;2024-02-26T05:34:28;2.30;;;2.10;;
9330;SDS011;4704;50.470;12.072;2024-02-26T05:36:56;2.35;;;2.15;;
9330;SDS011;4704;50.470;12.072;2024-02-26T05:39:24;2.17;;;1.98;;
9330;SDS011;4704;50.470;12.072;2024-02-26T05:41:51;2.08;;;1.98;;
9330;SDS011;4704;50.470;12.072;2024-02-26T05:44:18;2.22;;;2.03;;
9330;SDS011;4704;50.470;12.072;2024-02-26T05:46:46;2.55;;;2.35;;
9330;SDS011;4704;50.470;12.072;2024-02-26T05:49:15;2.20;;;2.10;;
9330;SDS011;4704;50.470;12.072;2024-02-26T05:51:42;2.42;;;2.22;;
9330;SDS011;4704;50.470;12.072;2024-02-26T05:54:10;2.28;;;2.08;;
9330;SDS011;4704;50.470;12.072;2024-02-26T05:56:37;2.20;;;2.00;;
9330;SDS011;4704;50.470;12.072;2024-02-26T05:59:05;2.47;;;2.28;;
9330;SDS011;4704;50.470;12.072;2024-02-26T06:01:32;2.20;;;2.00;;
9330;SDS011;4704;50.470;12.072;2024-02-26T06:03:59;2.50;;;2.30;;
9330;SDS011;4704;50.470;12.072;2024-02-26T06:06:28;2.20;;;2.00;;
9330;SDS011;4704;50.470;12.072;2024-02-26T06:08:56;2.17;;;2.03;;
9330;SDS011;4704;50.470;12.072;2024-02-26T06:11:23;2.38;;;2.17;;
9330;SDS011;4704;50.470;12.072;2024-02-26T06:13:51;2.40;;;2.20;;
9330;SDS011;4704;50.470;12.072;2024-02-26T06:16:18;2.30;;;2.10;;
9330;SDS011;4704;50.470;12.072;2024-02-26T06:18:45;2.28;;;2.08;;
9330;SDS011;4704;50.470;12.072;2024-02-26T06:21:13;2.13;;;1.98;;
9330;SDS011;4704;50.470;12.072;2024-02-26T06:23:42;2.25;;;2.05;;
9330;SDS011;4704;50.470;12.072;2024-02-26T06:26:09;2.67;;;2.47;;
9330;SDS011;4704;50.470;12.072;2024-02-26T06:28:37;2.22;;;2.03;;
9330;SDS011;4704;50.470;12.072;2024-02-26T06:31:05;2.42;;;2.22;;
9330;SDS011;4704;50.470;12.072;2024-02-26T06:33:33;2.40;;;2.20;;
9330;SDS011;4704;50.470;12.072;2024-02-26T06:36:01;2.60;;;2.40;;
9330;SDS011;4704;50.470;12.072;2024-02-26T06:38:28;2.47;;;2.28;;
9330;SDS011;4704;50.470;12.072;2024-02-26T06:40:57;2.55;;;2.35;;
9330;SDS011;4704;50.470;12.072;2024-02-26T06:43:24;2.50;;;2.30;;
9330;SDS011;4704;50.470;12.072;2024-02-26T06:45:52;2.50;;;2.30;;
9330;SDS011;4704;50.470;12.072;2024-02-26T06:48:19;3.55;;;2.40;;
9330;SDS011;4704;50.470;12.072;2024-02-26T06:50:47;2.35;;;2.22;;
9330;SDS011;4704;50.470;12.072;2024-02-26T06:53:14;2.40;;;2.20;;
9330;SDS011;4704;50.470;12.072;2024-02-26T06:55:42;2.50;;;2.25;;
9330;SDS011;4704;50.470;12.072;2024-02-26T06:58:10;2.45;;;2.25;;
9330;SDS011;4704;50.470;12.072;2024-02-26T07:00:39;2.50;;;2.30;;
9330;SDS011;4704;50.470;12.072;2024-02-26T07:03:06;2.50;;;2.30;;
9330;SDS011;4704;50.470;12.072;2024-02-26T07:05:33;2.53;;;2.20;;
9330;SDS011;4704;50.470;12.072;2024-02-26T07:08:01;2.50;;;2.30;;
9330;SDS011;4704;50.470;12.072;2024-02-26T07:10:28;2.58;;;2.20;;
9330;SDS011;4704;50.470;12.072;2024-02-26T07:12:56;2.78;;;2.50;;
9330;SDS011;4704;50.470;12.072;2024-02-26T07:15:25;2.85;;;2.65;;
9330;SDS011;4704;50.470;12.072;2024-02-26T07:17:53;2.47;;;2.28;;
9330;SDS011;4704;50.470;12.072;2024-02-26T07:20:20;2.63;;;2.42;;
9330;SDS011;4704;50.470;12.072;2024-02-26T07:22:48;2.60;;;2.40;;
9330;SDS011;4704;50.470;12.072;2024-02-26T07:25:15;2.50;;;2.30;;
9330;SDS011;4704;50.470;12.072;2024-02-26T07:27:43;2.58;;;2.20;;
9330;SDS011;4704;50.470;12.072;2024-02-26T07:30:10;2.53;;;2.33;;
9330;SDS011;4704;50.470;12.072;2024-02-26T07:32:39;2.30;;;2.13;;
9330;SDS011;4704;50.470;12.072;2024-02-26T07:35:07;2.50;;;2.30;;
9330;SDS011;4704;50.470;12.072;2024-02-26T07:37:35;2.50;;;2.30;;
9330;SDS011;4704;50.470;12.072;2024-02-26T07:40:03;2.97;;;2.50;;
9330;SDS011;4704;50.470;12.072;2024-02-26T07:42:31;2.45;;;2.22;;
9330;SDS011;4704;50.470;12.072;2024-02-26T07:44:59;2.72;;;2.53;;
9330;SDS011;4704;50.470;12.072;2024-02-26T07:47:26;2.50;;;2.30;;
9330;SDS011;4704;50.470;12.072;2024-02-26T07:49:56;2.60;;;2.40;;
9330;SDS011;4704;50.470;12.072;2024-02-26T07:52:24;2.75;;;2.55;;
9330;SDS011;4704;50.470;12.072;2024-02-26T07:54:51;2.60;;;2.40;;
9330;SDS011;4704;50.470;12.072;2024-02-26T07:57:19;2.53;;;2.33;;
9330;SDS011;4704;50.470;12.072;2024-02-26T07:59:46;3.35;;;2.63;;
9330;SDS011;4704;50.470;12.072;2024-02-26T08:02:15;3.65;;;2.80;;
9330;SDS011;4704;50.470;12.072;2024-02-26T08:04:42;2.90;;;2.70;;
9330;SDS011;4704;50.470;12.072;2024-02-26T08:07:11;2.92;;;2.70;;
9330;SDS011;4704;50.470;12.072;2024-02-26T08:09:39;2.70;;;2.50;;
9330;SDS011;4704;50.470;12.072;2024-02-26T08:12:06;2.65;;;2.45;;
9330;SDS011;4704;50.470;12.072;2024-02-26T08:14:33;2.70;;;2.50;;
9330;SDS011;4704;50.470;12.072;2024-02-26T08:17:01;2.42;;;2.22;;
9330;SDS011;4704;50.470;12.072;2024-02-26T08:19:28;2.70;;;2.50;;
9330;SDS011;4704;50.470;12.072;2024-02-26T08:21:56;2.78;;;2.58;;
9330;SDS011;4704;50.470;12.072;2024-02-26T08:24:25;3.22;;;2.92;;
9330;SDS011;4704;50.470;12.072;2024-02-26T08:26:53;2.60;;;2.40;;
9330;SDS011;4704;50.470;12.072;2024-02-26T08:29:20;2.60;;;2.40;;
9330;SDS011;4704;50.470;12.072;2024-02-26T08:31:48;2.97;;;2.67;;
9330;SDS011;4704;50.470;12.072;2024-02-26T08:34:15;2.97;;;2.67;;
9330;SDS011;4704;50.470;12.072;2024-02-26T08:36:43;2.72;;;2.45;;
9330;SDS011;4704;50.470;12.072;2024-02-26T08:39:10;2.92;;;2.72;;
9330;SDS011;4704;50.470;12.072;2024-02-26T08:41:40;2.90;;;2.50;;
9330;SDS011;4704;50.470;12.072;2024-02-26T08:44:08;3.10;;;2.50;;
9330;SDS011;4704;50.470;12.072;2024-02-26T08:46:35;2.92;;;2.53;;
9330;SDS011;4704;50.470;12.072;2024-02-26T08:49:03;2.80;;;2.60;;
9330;SDS011;4704;50.470;12.072;2024-02-26T08:51:30;2.67;;;2.47;;
9330;SDS011;4704;50.470;12.072;2024-02-26T08:53:58;2.95;;;2.60;;
9330;SDS011;4704;50.470;12.072;2024-02-26T08:56:25;2.45;;;2.25;;
9330;SDS011;4704;50.470;12.072;2024-02-26T08:58:54;3.30;;;2.67;;
9330;SDS011;4704;50.470;12.072;2024-02-26T09:01:22;2.75;;;2.55;;
9330;SDS011;4704;50.470;12.072;2024-02-26T09:03:50;3.25;;;2.95;;
9330;SDS011;4704;50.470;12.072;2024-02-26T09:06:17;2.78;;;2.58;;
9330;SDS011;4704;50.470;12.072;2024-02-26T09:08:45;3.38;;;3.08;;
9330;SDS011;4704;50.470;12.072;2024-02-26T09:11:12;3.05;;;2.78;;
9330;SDS011;4704;50.470;12.072;2024-02-26T09:13:40;3.33;;;3.03;;
9330;SDS011;4704;50.470;12.072;2024-02-26T09:16:08;3.03;;;2.72;;
9330;SDS011;4704;50.470;12.072;2024-02-26T09:18:36;2.90;;;2.70;;
9330;SDS011;4704;50.470;12.072;2024-02-26T09:21:04;2.78;;;2.58;;
9330;SDS011;4704;50.470;12.072;2024-02-26T09:23:31;3.38;;;2.83;;
9330;SDS011;4704;50.470;12.072;2024-02-26T09:26:00;3.38;;;3.08;;
9330;SDS011;4704;50.470;12.072;2024-02-26T09:28:27;3.03;;;2.72;;
9330;SDS011;4704;50.470;12.072;2024-02-26T09:30:57;2.95;;;2.65;;
9330;SDS011;4704;50.470;12.072;2024-02-26T09:33:26;2.83;;;2.63;;
9330;SDS011;4704;50.470;12.072;2024-02-26T09:35:53;3.00;;;2.70;;
9330;SDS011;4704;50.470;12.072;2024-02-26T09:38:21;3.58;;;2.58;;
9330;SDS011;4704;50.470;12.072;2024-02-26T09:40:49;3.30;;;3.00;;
9330;SDS011;4704;50.470;12.072;2024-02-26T09:43:17;3.28;;;2.97;;
9330;SDS011;4704;50.470;12.072;2024-02-26T09:45:46;3.00;;;2.80;;
9330;SDS011;4704;50.470;12.072;2024-02-26T09:48:13;3.20;;;2.90;;
9330;SDS011;4704;50.470;12.072;2024-02-26T09:50:43;3.40;;;3.10;;
9330;SDS011;4704;50.470;12.072;2024-02-26T09:53:11;3.40;;;3.10;;
9330;SDS011;4704;50.470;12.072;2024-02-26T09:55:40;3.25;;;2.95;;
9330;SDS011;4704;50.470;12.072;2024-02-26T09:58:07;3.50;;;3.20;;
9330;SDS011;4704;50.470;12.072;2024-02-26T10:00:36;3.20;;;2.90;;
9330;SDS011;4704;50.470;12.072;2024-02-26T10:03:05;2.97;;;2.78;;
9330;SDS011;4704;50.470;12.072;2024-02-26T10:05:33;3.03;;;2.83;;
9330;SDS011;4704;50.470;12.072;2024-02-26T10:08:02;3.40;;;3.10;;
9330;SDS011;4704;50.470;12.072;2024-02-26T10:10:31;3.10;;;2.80;;
9330;SDS011;4704;50.470;12.072;2024-02-26T10:13:00;3.70;;;3.38;;
9330;SDS011;4704;50.470;12.072;2024-02-26T10:15:27;3.15;;;2.95;;
9330;SDS011;4704;50.470;12.072;2024-02-26T10:17:54;3.20;;;2.90;;
9330;SDS011;4704;50.470;12.072;2024-02-26T10:20:22;3.42;;;3.13;;
9330;SDS011;4704;50.470;12.072;2024-02-26T10:22:51;3.30;;;3.00;;
9330;SDS011;4704;50.470;12.072;2024-02-26T10:25:20;3.35;;;3.05;;
9330;SDS011;4704;50.470;12.072;2024-02-26T10:27:48;3.17;;;2.88;;
9330;SDS011;4704;50.470;12.072;2024-02-26T10:30:16;3.42;;;3.13;;
9330;SDS011;4704;50.470;12.072;2024-02-26T10:32:44;3.92;;;3.25;;
9330;SDS011;4704;50.470;12.072;2024-02-26T10:35:13;3.78;;;3.45;;
9330;SDS011;4704;50.470;12.072;2024-02-26T10:37:40;3.88;;;3.22;;
9330;SDS011;4704;50.470;12.072;2024-02-26T10:40:09;3.72;;;3.42;;
9330;SDS011;4704;50.470;12.072;2024-02-26T10:42:38;3.47;;;3.17;;
9330;SDS011;4704;50.470;12.072;2024-02-26T10:45:06;3.40;;;3.10;;
9330;SDS011;4704;50.470;12.072;2024-02-26T10:47:34;3.17;;;2.90;;
9330;SDS011;4704;50.470;12.072;2024-02-26T10:50:02;3.50;;;3.20;;
9330;SDS011;4704;50.470;12.072;2024-02-26T10:52:31;4.55;;;3.40;;
9330;SDS011;4704;50.470;12.072;2024-02-26T10:55:00;3.65;;;3.35;;
9330;SDS011;4704;50.470;12.072;2024-02-26T10:57:29;3.58;;;3.28;;
9330;SDS011;4704;50.470;12.072;2024-02-26T11:00:00;3.50;;;3.20;;
9330;SDS011;4704;50.470;12.072;2024-02-26T11:02:29;3.47;;;3.17;;
9330;SDS011;4704;50.470;12.072;2024-02-26T11:04:58;4.55;;;3.55;;
9330;SDS011;4704;50.470;12.072;2024-02-26T11:07:25;4.80;;;3.72;;
9330;SDS011;4704;50.470;12.072;2024-02-26T11:09:53;3.72;;;3.33;;
9330;SDS011;4704;50.470;12.072;2024-02-26T11:12:22;3.88;;;3.47;;
9330;SDS011;4704;50.470;12.072;2024-02-26T11:14:49;3.80;;;3.40;;
9330;SDS011;4704;50.470;12.072;2024-02-26T11:17:21;3.60;;;3.30;;
9330;SDS011;4704;50.470;12.072;2024-02-26T11:19:51;4.00;;;3.60;;
9330;SDS011;4704;50.470;12.072;2024-02-26T11:22:18;3.65;;;3.35;;
9330;SDS011;4704;50.470;12.072;2024-02-26T11:24:47;4.15;;;3.78;;
9330;SDS011;4704;50.470;12.072;2024-02-26T11:27:15;4.88;;;3.70;;
9330;SDS011;4704;50.470;12.072;2024-02-26T11:29:46;4.50;;;3.55;;
9330;SDS011;4704;50.470;12.072;2024-02-26T11:32:15;4.18;;;3.63;;
9330;SDS011;4704;50.470;12.072;2024-02-26T11:34:44;4.32;;;3.92;;
9330;SDS011;4704;50.470;12.072;2024-02-26T11:37:12;4.20;;;3.80;;
9330;SDS011;4704;50.470;12.072;2024-02-26T11:39:40;4.47;;;4.07;;
9330;SDS011;4704;50.470;12.072;2024-02-26T11:42:08;3.95;;;3.50;;
9330;SDS011;4704;50.470;12.072;2024-02-26T11:44:36;3.97;;;3.60;;
9330;SDS011;4704;50.470;12.072;2024-02-26T11:47:10;4.47;;;4.00;;
9330;SDS011;4704;50.470;12.072;2024-02-26T11:49:38;4.45;;;4.03;;
9330;SDS011;4704;50.470;12.072;2024-02-26T11:52:07;4.07;;;3.58;;
9330;SDS011;4704;50.470;12.072;2024-02-26T11:54:38;4.07;;;3.67;;
9330;SDS011;4704;50.470;12.072;2024-02-26T11:57:19;4.55;;;3.90;;
9330;SDS011;4704;50.470;12.072;2024-02-26T11:59:47;4.45;;;3.65;;
9330;SDS011;4704;50.470;12.072;2024-02-26T12:04:58;4.03;;;3.70;;
9330;SDS011;4704;50.470;12.072;2024-02-26T12:07:27;4.32;;;3.92;;
9330;SDS011;4704;50.470;12.072;2024-02-26T12:09:56;4.22;;;3.83;;
9330;SDS011;4704;50.470;12.072;2024-02-26T12:12:41;4.45;;;4.05;;
9330;SDS011;4704;50.470;12.072;2024-02-26T12:15:09;4.07;;;3.67;;
9330;SDS011;4704;50.470;12.072;2024-02-26T12:17:37;3.95;;;3.65;;
9330;SDS011;4704;50.470;12.072;2024-02-26T12:20:08;4.22;;;3.83;;
9330;SDS011;4704;50.470;12.072;2024-02-26T12:22:37;4.57;;;4.10;;
9330;SDS011;4704;50.470;12.072;2024-02-26T12:25:08;3.80;;;3.50;;
9330;SDS011;4704;50.470;12.072;2024-02-26T12:27:40;4.28;;;3.88;;
9330;SDS011;4704;50.470;12.072;2024-02-26T12:30:14;4.28;;;3.72;;
9330;SDS011;4704;50.470;12.072;2024-02-26T12:32:41;3.78;;;3.47;;
9330;SDS011;4704;50.470;12.072;2024-02-26T12:35:09;3.85;;;3.55;;
9330;SDS011;4704;50.470;12.072;2024-02-26T12:37:38;4.07;;;3.72;;
9330;SDS011;4704;50.470;12.072;2024-02-26T12:40:05;4.25;;;3.75;;
9330;SDS011;4704;50.470;12.072;2024-02-26T12:42:34;4.25;;;3.85;;
9330;SDS011;4704;50.470;12.072;2024-02-26T12:45:05;4.18;;;3.78;;
9330;SDS011;4704;50.470;12.072;2024-02-26T12:47:35;4.25;;;3.85;;
9330;SDS011;4704;50.470;12.072;2024-02-26T12:50:02;4.10;;;3.75;;
9330;SDS011;4704;50.470;12.072;2024-02-26T12:52:30;3.83;;;3.50;;
9330;SDS011;4704;50.470;12.072;2024-02-26T12:55:00;3.92;;;3.53;;
9330;SDS011;4704;50.470;12.072;2024-02-26T12:57:29;4.10;;;3.65;;
9330;SDS011;4704;50.470;12.072;2024-02-26T12:59:57;3.83;;;3.50;;
9330;SDS011;4704;50.470;12.072;2024-02-26T13:02:24;3.75;;;3.33;;
9330;SDS011;4704;50.470;12.072;2024-02-26T13:04:52;3.70;;;3.22;;
9330;SDS011;4704;50.470;12.072;2024-02-26T13:07:20;3.70;;;3.40;;
9330;SDS011;4704;50.470;12.072;2024-02-26T13:09:47;3.88;;;3.55;;
9330;SDS011;4704;50.470;12.072;2024-02-26T13:12:16;3.92;;;3.55;;
9330;SDS011;4704;50.470;12.072;2024-02-26T13:14:44;3.50;;;3.20;;
9330;SDS011;4704;50.470;12.072;2024-02-26T13:17:11;4.05;;;3.40;;
9330;SDS011;4704;50.470;12.072;2024-02-26T13:19:48;3.70;;;3.30;;
9330;SDS011;4704;50.470;12.072;2024-02-26T13:22:16;3.45;;;3.15;;
9330;SDS011;4704;50.470;12.072;2024-02-26T13:24:43;4.00;;;3.13;;
9330;SDS011;4704;50.470;12.072;2024-02-26T13:27:11;3.60;;;3.30;;
9330;SDS011;4704;50.470;12.072;2024-02-26T13:29:39;4.10;;;3.30;;
9330;SDS011;4704;50.470;12.072;2024-02-26T13:32:07;3.75;;;3.40;;
9330;SDS011;4704;50.470;12.072;2024-02-26T13:34:38;3.78;;;3.25;;
9330;SDS011;4704;50.470;12.072;2024-02-26T13:37:06;4.15;;;3.75;;
9330;SDS011;4704;50.470;12.072;2024-02-26T13:39:34;3.40;;;3.10;;
9330;SDS011;4704;50.470;12.072;2024-02-26T13:42:01;4.47;;;2.97;;
9330;SDS011;4704;50.470;12.072;2024-02-26T13:44:29;3.83;;;3.53;;
9330;SDS011;4704;50.470;12.072;2024-02-26T13:46:58;3.50;;;3.20;;
9330;SDS011;4704;50.470;12.072;2024-02-26T13:49:25;3.45;;;3.15;;
9330;SDS011;4704;50.470;12.072;2024-02-26T13:51:53;3.55;;;3.25;;
9330;SDS011;4704;50.470;12.072;2024-02-26T13:54:20;3.20;;;2.90;;
9330;SDS011;4704;50.470;12.072;2024-02-26T13:56:47;3.63;;;3.25;;
9330;SDS011;4704;50.470;12.072;2024-02-26T13:59:15;3.10;;;2.88;;
9330;SDS011;4704;50.470;12.072;2024-02-26T14:01:42;3.78;;;3.38;;
9330;SDS011;4704;50.470;12.072;2024-02-26T14:04:11;3.50;;;3.20;;
9330;SDS011;4704;50.470;12.072;2024-02-26T14:06:38;3.35;;;3.05;;
9330;SDS011;4704;50.470;12.072;2024-02-26T14:09:06;4.07;;;3.58;;
9330;SDS011;4704;50.470;12.072;2024-02-26T14:11:34;3.40;;;3.10;;
9330;SDS011;4704;50.470;12.072;2024-02-26T14:14:01;3.10;;;2.80;;
9330;SDS011;4704;50.470;12.072;2024-02-26T14:16:29;3.20;;;2.90;;
9330;SDS011;4704;50.470;12.072;2024-02-26T14:18:57;3.25;;;2.95;;
9330;SDS011;4704;50.470;12.072;2024-02-26T14:21:26;3.10;;;2.90;;
9330;SDS011;4704;50.470;12.072;2024-02-26T14:23:54;3.10;;;2.88;;
9330;SDS011;4704;50.470;12.072;2024-02-26T14:26:22;3.33;;;3.03;;
9330;SDS011;4704;50.470;12.072;2024-02-26T14:28:49;3.20;;;2.90;;
9330;SDS011;4704;50.470;12.072;2024-02-26T14:31:17;3.63;;;3.17;;
9330;SDS011;4704;50.470;12.072;2024-02-26T14:33:44;3.42;;;3.13;;
9330;SDS011;4704;50.470;12.072;2024-02-26T14:36:13;3.38;;;3.08;;
9330;SDS011;4704;50.470;12.072;2024-02-26T14:38:42;3.20;;;2.90;;
9330;SDS011;4704;50.470;12.072;2024-02-26T14:41:09;3.50;;;3.20;;
9330;SDS011;4704;50.470;12.072;2024-02-26T14:43:37;3.33;;;3.03;;
9330;SDS011;4704;50.470;12.072;2024-02-26T14:46:04;3.67;;;3.00;;
9330;SDS011;4704;50.470;12.072;2024-02-26T14:48:32;3.03;;;2.83;;
9330;SDS011;4704;50.470;12.072;2024-02-26T14:51:00;3.15;;;2.85;;
9330;SDS011;4704;50.470;12.072;2024-02-26T14:53:27;2.97;;;2.78;;
9330;SDS011;4704;50.470;12.072;2024-02-26T14:55:56;3.53;;;3.22;;
9330;SDS011;4704;50.470;12.072;2024-02-26T14:58:25;3.50;;;3.20;;
9330;SDS011;4704;50.470;12.072;2024-02-26T15:00:52;2.90;;;2.70;;
9330;SDS011;4704;50.470;12.072;2024-02-26T15:03:20;2.97;;;2.67;;
9330;SDS011;4704;50.470;12.072;2024-02-26T15:05:47;3.85;;;3.03;;
9330;SDS011;4704;50.470;12.072;2024-02-26T15:08:14;3.33;;;3.03;;